createdAt,value
2024-01-19T00:00:23.410Z,8.70
2024-01-19T00:03:33.094Z,8.60
2024-01-19T00:06:40.445Z,8.80
2024-01-19T00:09:48.159Z,8.60
2024-01-19T00:12:57.784Z,8.40
2024-01-19T00:16:05.358Z,8.40
2024-01-19T00:19:12.337Z,7.90
2024-01-19T00:22:20.017Z,7.40
2024-01-19T00:25:29.488Z,7.60
2024-01-19T00:28:37.107Z,8.40
2024-01-19T00:31:45.720Z,8.10
2024-01-19T00:34:55.696Z,7.60
2024-01-19T00:38:02.835Z,7.40
2024-01-19T00:41:04.778Z,8.30
2024-01-19T00:44:13.122Z,11.40
2024-01-19T00:47:20.789Z,15.00
2024-01-19T00:50:28.849Z,19.60
2024-01-19T00:53:37.796Z,12.70
2024-01-19T00:56:45.250Z,11.40
2024-01-19T00:59:53.478Z,11.60
2024-01-19T01:03:00.763Z,10.00
2024-01-19T01:06:09.397Z,23.20
2024-01-19T01:09:16.949Z,12.60
2024-01-19T01:12:17.350Z,15.70
2024-01-19T01:15:21.052Z,19.50
2024-01-19T01:18:28.748Z,10.40
2024-01-19T01:21:36.021Z,8.60
2024-01-19T01:24:44.731Z,7.30
2024-01-19T01:27:52.516Z,7.20
2024-01-19T01:30:59.749Z,7.50
2024-01-19T01:34:08.339Z,7.10
2024-01-19T01:37:15.889Z,7.30
2024-01-19T01:40:23.142Z,7.30
2024-01-19T01:43:31.950Z,7.50
2024-01-19T01:46:39.637Z,8.60
2024-01-19T01:49:47.050Z,7.70
2024-01-19T01:52:55.205Z,8.40
2024-01-19T01:56:04.499Z,8.60
2024-01-19T01:59:11.550Z,10.70
2024-01-19T02:02:19.431Z,9.80
2024-01-19T02:05:29.410Z,8.70
2024-01-19T02:08:36.984Z,12.10
2024-01-19T02:11:45.957Z,11.70
2024-01-19T02:14:54.844Z,11.70
2024-01-19T02:18:03.180Z,9.90
2024-01-19T02:21:10.933Z,8.90
2024-01-19T02:24:19.745Z,9.80
2024-01-19T02:27:26.690Z,9.00
2024-01-19T02:30:34.514Z,9.50
2024-01-19T02:33:44.167Z,10.10
2024-01-19T02:36:51.009Z,10.20
2024-01-19T02:39:59.249Z,9.90
2024-01-19T02:43:07.027Z,8.40
2024-01-19T02:46:16.543Z,8.40
2024-01-19T02:49:24.119Z,7.30
2024-01-19T02:52:32.064Z,7.90
2024-01-19T02:55:40.474Z,7.90
2024-01-19T02:58:48.289Z,8.50
2024-01-19T03:01:56.221Z,8.20
2024-01-19T03:05:04.801Z,8.70
2024-01-19T03:08:12.067Z,8.40
2024-01-19T03:11:19.562Z,8.90
2024-01-19T03:14:28.592Z,8.70
2024-01-19T03:17:36.658Z,8.90
2024-01-19T03:20:43.584Z,9.20
2024-01-19T03:23:51.089Z,9.10
2024-01-19T03:27:00.321Z,9.20
2024-01-19T03:30:09.147Z,9.00
2024-01-19T03:33:17.409Z,10.10
2024-01-19T03:36:26.631Z,9.90
2024-01-19T03:39:33.828Z,10.40
2024-01-19T03:42:41.578Z,11.50
2024-01-19T03:45:50.081Z,11.30
2024-01-19T03:48:57.232Z,11.90
2024-01-19T03:52:05.146Z,13.00
2024-01-19T03:55:15.859Z,11.60
2024-01-19T03:58:24.709Z,12.10
2024-01-19T04:01:32.531Z,13.20
2024-01-19T04:04:40.432Z,13.80
2024-01-19T04:07:49.313Z,14.90
2024-01-19T04:10:56.405Z,15.40
2024-01-19T04:14:04.423Z,15.90
2024-01-19T04:17:12.974Z,15.60
2024-01-19T04:20:20.394Z,15.40
2024-01-19T04:23:28.346Z,15.20
2024-01-19T04:26:37.526Z,15.00
2024-01-19T04:29:45.194Z,13.50
2024-01-19T04:32:52.970Z,14.30
2024-01-19T04:36:01.915Z,15.20
2024-01-19T04:39:08.940Z,14.60
2024-01-19T04:42:16.639Z,14.30
2024-01-19T04:45:23.412Z,15.10
2024-01-19T04:48:32.638Z,13.50
2024-01-19T04:51:40.302Z,13.40
2024-01-19T04:54:47.688Z,14.30
2024-01-19T04:57:56.801Z,12.80
2024-01-19T05:01:04.312Z,13.30
2024-01-19T05:04:11.519Z,14.00
2024-01-19T05:07:20.645Z,14.80
2024-01-19T05:10:28.219Z,15.60
2024-01-19T05:13:35.940Z,15.70
2024-01-19T05:16:36.391Z,15.60
2024-01-19T05:19:53.349Z,18.00
2024-01-19T05:23:01.050Z,16.80
2024-01-19T05:26:09.637Z,16.50
2024-01-19T05:29:17.890Z,16.70
2024-01-19T05:32:25.081Z,15.60
2024-01-19T05:35:32.496Z,15.40
2024-01-19T05:38:41.706Z,14.70
2024-01-19T05:41:49.258Z,15.10
2024-01-19T05:44:56.472Z,15.40
2024-01-19T05:48:06.392Z,16.30
2024-01-19T05:51:13.736Z,15.10
2024-01-19T05:54:21.453Z,16.00
2024-01-19T05:57:30.677Z,16.80
2024-01-19T06:00:38.751Z,15.20
2024-01-19T06:03:46.955Z,15.40
2024-01-19T06:06:56.486Z,16.20
2024-01-19T06:10:03.950Z,16.20
2024-01-19T06:13:11.787Z,16.60
2024-01-19T06:16:19.722Z,15.80
2024-01-19T06:19:28.619Z,16.50
2024-01-19T06:22:36.434Z,16.60
2024-01-19T06:25:44.159Z,17.00
2024-01-19T06:28:52.993Z,16.40
2024-01-19T06:32:00.575Z,16.50
2024-01-19T06:35:08.860Z,15.80
2024-01-19T06:38:17.892Z,16.90
2024-01-19T06:41:25.470Z,18.00
2024-01-19T06:44:32.731Z,15.40
2024-01-19T06:47:41.385Z,15.20
2024-01-19T06:50:49.728Z,17.00
2024-01-19T06:53:57.821Z,16.20
2024-01-19T06:57:05.114Z,15.30
2024-01-19T07:00:14.214Z,15.40
2024-01-19T07:03:22.558Z,15.80
2024-01-19T07:06:30.247Z,15.60
2024-01-19T07:09:39.192Z,15.30
2024-01-19T07:12:47.574Z,14.40
2024-01-19T07:15:54.772Z,15.10
2024-01-19T07:19:04.316Z,15.00
2024-01-19T07:22:13.174Z,15.30
2024-01-19T07:25:20.108Z,14.80
2024-01-19T07:28:29.252Z,15.30
2024-01-19T07:31:36.906Z,14.90
2024-01-19T07:34:44.061Z,15.30
2024-01-19T07:37:51.940Z,13.90
2024-01-19T07:41:01.712Z,15.50
2024-01-19T07:44:08.586Z,17.10
2024-01-19T07:47:16.415Z,15.80
2024-01-19T07:50:25.391Z,16.10
2024-01-19T07:53:32.714Z,16.20
2024-01-19T07:56:40.601Z,17.20
2024-01-19T07:59:49.821Z,17.30
2024-01-19T08:02:56.704Z,17.20
2024-01-19T08:06:05.311Z,17.70
2024-01-19T08:09:14.518Z,17.90
2024-01-19T08:12:21.420Z,18.20
2024-01-19T08:15:29.035Z,17.80
2024-01-19T08:18:38.478Z,19.00
2024-01-19T08:21:46.427Z,17.40
2024-01-19T08:24:54.319Z,17.20
2024-01-19T08:28:02.280Z,17.40
2024-01-19T08:31:11.135Z,18.10
2024-01-19T08:34:19.265Z,17.40
2024-01-19T08:37:28.155Z,18.70
2024-01-19T08:40:36.714Z,18.40
2024-01-19T08:43:44.150Z,18.20
2024-01-19T08:46:51.871Z,18.80
2024-01-19T08:50:00.512Z,19.10
2024-01-19T08:53:07.729Z,19.00
2024-01-19T08:56:15.527Z,19.30
2024-01-19T08:59:24.464Z,19.20
2024-01-19T09:02:32.216Z,18.90
2024-01-19T09:05:39.846Z,19.00
2024-01-19T09:08:47.483Z,16.80
2024-01-19T09:11:56.780Z,17.10
2024-01-19T09:15:04.389Z,16.00
2024-01-19T09:18:11.786Z,16.20
2024-01-19T09:21:20.698Z,15.60
2024-01-19T09:24:28.175Z,15.90
2024-01-19T09:27:36.186Z,15.80
2024-01-19T09:30:44.918Z,14.30
2024-01-19T09:33:52.849Z,16.80
2024-01-19T09:37:00.505Z,15.40
2024-01-19T09:40:09.845Z,15.30
2024-01-19T09:43:18.226Z,15.00
2024-01-19T09:46:25.834Z,15.50
2024-01-19T09:49:33.397Z,15.40
2024-01-19T09:52:42.457Z,15.10
2024-01-19T09:55:50.758Z,16.00
2024-01-19T09:58:58.137Z,15.40
2024-01-19T10:02:07.050Z,16.70
2024-01-19T10:05:15.138Z,15.20
2024-01-19T10:08:22.409Z,16.00
2024-01-19T10:11:31.635Z,16.20
2024-01-19T10:14:39.535Z,15.80
2024-01-19T10:17:47.573Z,15.30
2024-01-19T10:20:56.483Z,15.90
2024-01-19T10:24:04.022Z,16.00
2024-01-19T10:27:11.470Z,15.20
2024-01-19T10:30:21.042Z,15.80
2024-01-19T10:33:28.953Z,15.60
2024-01-19T10:36:36.245Z,15.10
2024-01-19T10:39:44.252Z,14.50
2024-01-19T10:42:53.142Z,14.90
2024-01-19T10:46:00.629Z,14.30
2024-01-19T10:49:09.105Z,14.10
2024-01-19T10:52:19.267Z,14.40
2024-01-19T10:55:27.122Z,13.80
2024-01-19T10:58:34.528Z,14.90
2024-01-19T11:01:44.362Z,14.30
2024-01-19T11:04:51.896Z,13.60
2024-01-19T11:07:59.649Z,14.90
2024-01-19T11:11:09.062Z,13.60
2024-01-19T11:14:17.628Z,14.10
2024-01-19T11:17:25.304Z,14.50
2024-01-19T11:20:33.318Z,14.50
2024-01-19T11:23:42.468Z,14.70
2024-01-19T11:26:50.229Z,13.40
2024-01-19T11:29:57.582Z,15.70
2024-01-19T11:33:07.298Z,14.30
2024-01-19T11:36:14.325Z,14.00
2024-01-19T11:39:22.155Z,14.40
2024-01-19T11:42:31.203Z,14.00
2024-01-19T11:45:39.128Z,14.80
2024-01-19T11:48:47.718Z,15.50
2024-01-19T11:51:59.689Z,13.40
2024-01-19T11:55:07.360Z,14.00
2024-01-19T11:58:15.344Z,13.80
2024-01-19T12:01:22.916Z,12.00
2024-01-19T12:04:31.730Z,13.60
2024-01-19T12:07:40.274Z,12.60
2024-01-19T12:10:48.846Z,13.10
2024-01-19T12:14:04.854Z,12.60
2024-01-19T12:17:02.592Z,13.20
2024-01-19T12:20:10.661Z,11.20
2024-01-19T12:23:19.313Z,10.90
2024-01-19T12:26:27.013Z,11.80
2024-01-19T12:29:34.810Z,11.90
2024-01-19T12:32:43.841Z,11.60
2024-01-19T12:35:51.112Z,10.80
2024-01-19T12:38:58.741Z,10.70
2024-01-19T12:42:07.316Z,10.80
2024-01-19T12:45:14.593Z,10.20
2024-01-19T12:48:28.864Z,10.60
2024-01-19T12:51:26.211Z,9.60
2024-01-19T12:54:35.173Z,9.60
2024-01-19T12:57:43.113Z,10.10
2024-01-19T13:00:50.137Z,7.90
2024-01-19T13:03:59.377Z,8.50
2024-01-19T13:07:06.627Z,8.70
2024-01-19T13:10:14.646Z,8.80
2024-01-19T13:13:23.454Z,8.50
2024-01-19T13:16:31.208Z,8.10
2024-01-19T13:19:38.600Z,8.30
2024-01-19T13:22:48.010Z,7.60
2024-01-19T13:25:55.752Z,8.60
2024-01-19T13:29:02.825Z,8.50
2024-01-19T13:32:10.719Z,8.40
2024-01-19T13:35:19.543Z,8.00
2024-01-19T13:38:26.936Z,7.80
2024-01-19T13:41:34.768Z,8.70
2024-01-19T13:44:43.570Z,9.00
2024-01-19T13:47:50.926Z,8.50
2024-01-19T13:50:59.604Z,8.90
2024-01-19T13:54:08.347Z,8.00
2024-01-19T13:57:15.700Z,8.10
2024-01-19T14:00:22.830Z,7.30
2024-01-19T14:03:32.257Z,7.40
2024-01-19T14:06:39.159Z,7.50
2024-01-19T14:09:46.770Z,7.80
2024-01-19T14:12:54.767Z,7.10
2024-01-19T14:16:03.599Z,7.60
2024-01-19T14:19:12.338Z,7.40
2024-01-19T14:22:19.524Z,7.60
2024-01-19T14:25:28.592Z,7.70
2024-01-19T14:28:36.028Z,7.70
2024-01-19T14:31:44.067Z,7.60
2024-01-19T14:34:56.372Z,8.20
2024-01-19T14:37:55.145Z,8.60
2024-01-19T14:41:03.013Z,8.80
2024-01-19T14:44:11.555Z,8.40
2024-01-19T14:47:19.710Z,7.50
2024-01-19T14:50:28.103Z,8.80
2024-01-19T14:53:36.213Z,8.50
2024-01-19T14:56:44.932Z,8.70
2024-01-19T14:59:53.037Z,9.00
2024-01-19T15:03:00.237Z,9.00
2024-01-19T15:06:09.483Z,8.80
2024-01-19T15:09:16.830Z,8.60
2024-01-19T15:12:24.139Z,8.20
2024-01-19T15:15:33.089Z,8.70
2024-01-19T15:18:40.694Z,9.70
2024-01-19T15:21:47.836Z,9.80
2024-01-19T15:24:56.850Z,9.50
2024-01-19T15:28:04.164Z,11.10
2024-01-19T15:31:11.317Z,10.60
2024-01-19T15:34:19.507Z,10.40
2024-01-19T15:37:28.774Z,10.00
2024-01-19T15:40:37.145Z,11.00
2024-01-19T15:43:44.302Z,11.90
2024-01-19T15:46:52.937Z,12.30
2024-01-19T15:50:00.105Z,17.30
2024-01-19T15:53:09.443Z,12.40
2024-01-19T15:56:07.595Z,13.80
2024-01-19T15:59:15.456Z,13.10
2024-01-19T16:02:22.941Z,13.60
2024-01-19T16:05:31.884Z,13.70
2024-01-19T16:08:39.366Z,13.60
2024-01-19T16:11:47.599Z,15.10
2024-01-19T16:14:55.287Z,13.30
2024-01-19T16:18:04.329Z,14.70
2024-01-19T16:21:11.707Z,13.80
2024-01-19T16:24:19.341Z,14.20
2024-01-19T16:27:28.440Z,14.30
2024-01-19T16:30:35.868Z,14.30
2024-01-19T16:33:44.581Z,14.50
2024-01-19T16:36:53.834Z,15.40
2024-01-19T16:40:01.743Z,15.10
2024-01-19T16:43:09.084Z,15.90
2024-01-19T16:46:18.432Z,15.00
2024-01-19T16:49:25.518Z,14.40
2024-01-19T16:52:33.277Z,15.10
2024-01-19T16:55:42.544Z,15.40
2024-01-19T16:58:50.607Z,15.50
2024-01-19T17:01:58.486Z,15.20
2024-01-19T17:05:06.177Z,14.80
2024-01-19T17:08:16.099Z,14.90
2024-01-19T17:11:23.987Z,15.50
2024-01-19T17:14:31.288Z,15.50
2024-01-19T17:17:40.883Z,16.00
2024-01-19T17:20:48.956Z,16.00
2024-01-19T17:23:58.594Z,15.30
2024-01-19T17:26:59.009Z,16.30
2024-01-19T17:30:06.371Z,16.90
2024-01-19T17:33:14.254Z,16.00
2024-01-19T17:36:23.255Z,16.10
2024-01-19T17:39:31.884Z,16.40
2024-01-19T17:42:39.409Z,16.90
2024-01-19T17:45:46.999Z,16.30
2024-01-19T17:48:56.241Z,16.20
2024-01-19T17:52:03.276Z,16.80
2024-01-19T17:55:10.931Z,16.30
2024-01-19T17:58:19.454Z,14.90
2024-01-19T18:01:26.713Z,15.30
2024-01-19T18:04:34.115Z,15.10
2024-01-19T18:07:43.041Z,16.00
2024-01-19T18:10:50.393Z,15.70
2024-01-19T18:13:57.507Z,14.10
2024-01-19T18:17:07.476Z,14.80
2024-01-19T18:20:14.659Z,15.50
2024-01-19T18:23:21.878Z,15.10
2024-01-19T18:26:29.440Z,16.00
2024-01-19T18:29:37.838Z,15.20
2024-01-19T18:32:48.180Z,14.10
2024-01-19T18:35:46.120Z,14.40
2024-01-19T18:38:54.839Z,14.40
2024-01-19T18:42:01.806Z,13.70
2024-01-19T18:45:09.405Z,14.00
2024-01-19T18:48:18.603Z,13.80
2024-01-19T18:51:26.029Z,14.60
2024-01-19T18:54:33.341Z,14.30
2024-01-19T18:57:42.121Z,13.90
2024-01-19T19:00:50.167Z,13.00
2024-01-19T19:03:57.745Z,11.90
2024-01-19T19:07:04.678Z,12.00
2024-01-19T19:10:15.486Z,12.60
2024-01-19T19:13:23.546Z,12.30
2024-01-19T19:16:37.104Z,11.80
2024-01-19T19:19:36.692Z,11.90
2024-01-19T19:22:44.655Z,11.90
2024-01-19T19:25:51.459Z,12.40
2024-01-19T19:29:00.227Z,12.30
2024-01-19T19:32:07.118Z,11.50
2024-01-19T19:35:15.021Z,14.40
2024-01-19T19:38:23.940Z,14.40
2024-01-19T19:41:31.535Z,14.10
2024-01-19T19:44:39.342Z,20.60
2024-01-19T19:47:47.045Z,32.50
2024-01-19T19:50:55.627Z,34.60
2024-01-19T19:54:03.146Z,32.50
2024-01-19T19:57:10.767Z,27.10
2024-01-19T20:00:19.122Z,29.30
2024-01-19T20:03:26.080Z,27.80
2024-01-19T20:06:33.842Z,89.90
2024-01-19T20:09:42.680Z,35.10
2024-01-19T20:12:50.893Z,17.10
2024-01-19T20:15:58.019Z,14.20
2024-01-19T20:19:07.683Z,22.90
2024-01-19T20:22:15.508Z,13.30
2024-01-19T20:25:23.252Z,16.30
2024-01-19T20:28:31.315Z,14.30
2024-01-19T20:31:41.414Z,39.60
2024-01-19T20:34:49.021Z,24.30
2024-01-19T20:37:57.348Z,19.50
2024-01-19T20:41:06.564Z,12.40
2024-01-19T20:44:15.473Z,19.80
2024-01-19T20:47:24.306Z,12.20
2024-01-19T20:50:34.529Z,14.30
2024-01-19T20:53:42.139Z,12.80
2024-01-19T20:56:51.669Z,19.00
2024-01-19T20:59:51.765Z,15.40
2024-01-19T21:02:59.057Z,10.60
2024-01-19T21:06:06.500Z,12.20
2024-01-19T21:09:14.314Z,10.60
2024-01-19T21:12:26.111Z,11.80
2024-01-19T21:15:33.863Z,11.50
2024-01-19T21:18:41.272Z,10.30
2024-01-19T21:21:50.704Z,10.50
2024-01-19T21:24:58.313Z,10.70
2024-01-19T21:28:05.656Z,11.40
2024-01-19T21:31:15.007Z,13.00
2024-01-19T21:34:22.878Z,9.40
2024-01-19T21:37:30.160Z,9.60
2024-01-19T21:40:39.478Z,9.90
2024-01-19T21:43:46.927Z,11.40
2024-01-19T21:46:54.637Z,10.90
2024-01-19T21:50:03.940Z,9.80
2024-01-19T21:53:12.318Z,11.00
2024-01-19T21:56:20.072Z,11.10
2024-01-19T21:59:27.890Z,11.40
2024-01-19T22:02:37.673Z,11.00
2024-01-19T22:05:44.972Z,11.40
2024-01-19T22:08:52.418Z,11.90
2024-01-19T22:12:01.512Z,10.90
2024-01-19T22:15:10.637Z,11.80
2024-01-19T22:18:17.984Z,10.70
2024-01-19T22:21:27.032Z,11.00
2024-01-19T22:24:34.669Z,9.60
2024-01-19T22:27:42.110Z,10.10
2024-01-19T22:30:52.307Z,10.00
2024-01-19T22:33:59.704Z,9.50
2024-01-19T22:37:07.502Z,11.50
2024-01-19T22:40:14.472Z,10.60
2024-01-19T22:43:23.929Z,10.90
2024-01-19T22:46:31.746Z,11.30
2024-01-19T22:49:38.661Z,10.70
2024-01-19T22:52:47.646Z,10.50
2024-01-19T22:55:56.534Z,11.10
2024-01-19T22:59:03.502Z,12.10
2024-01-19T23:02:13.166Z,12.40
2024-01-19T23:05:21.036Z,11.90
2024-01-19T23:08:28.284Z,12.40
2024-01-19T23:11:38.345Z,12.40
2024-01-19T23:14:45.193Z,12.20
2024-01-19T23:17:52.502Z,11.90
2024-01-19T23:20:59.791Z,12.70
2024-01-19T23:24:09.392Z,14.20
2024-01-19T23:27:17.055Z,11.80
2024-01-19T23:30:25.118Z,12.50
2024-01-19T23:33:34.796Z,13.30
2024-01-19T23:36:43.233Z,13.40
2024-01-19T23:39:50.412Z,12.60
2024-01-19T23:42:59.819Z,12.30
2024-01-19T23:46:07.557Z,13.50
2024-01-19T23:49:15.233Z,13.30
2024-01-19T23:52:23.840Z,14.90
2024-01-19T23:55:31.357Z,14.40
2024-01-19T23:58:39.527Z,14.40
